• Join FlightAware (Why Join?)
  • Login
  • US Flag 
Gobble Gobble! 
04:29AM EST


 

Airport Tracker/Info


-or-


 

Live Flight TrackerFlight Track Log ✈ N147SW ✈ 30-Apr-2014 ✈ KAUS - KPIE

Flight Track Log - Related Links

Times and Time Zones

All times are in EDT time to prevent confusion due to time zone crossing. See the N147SW flight status page for this flight to view local times or setup timezone preferences in your user account.

Time Position Orientation Groundspeed Altitude Reporting Facility
EDT Latitude Longitude Course Direction KTS MPH feet Rate Location/Type
11:45PM 30.2753 -97.6264 90° East 210 242 6,500  Level Houston Center
11:46PM 30.3008 -97.5375 72° East 282 325 10,200 2,940 Climbing Houston Center
11:47PM 30.3183 -97.4358 79° East 322 371 12,500 2,400 Climbing Houston Center
11:48PM 30.3394 -97.3200 78° East 362 417 15,200 2,340 Climbing Houston Center
11:49PM 30.3603 -97.1989 79° East 382 440 17,300 1,980 Climbing Houston Center
11:50PM 30.3333 -96.9463 90° East  Level FlightAware Approximate
11:50PM 30.3533 -97.0681 93° East 407 468 19,200  Level Houston Center
11:51PM 30.3439 -96.9336 95° East 417 480 21,200 1,860 Climbing Houston Center
11:52PM 30.3361 -96.7942 94° East 433 498 23,000 1,620 Climbing Houston Center
11:53PM 30.3272 -96.6497 94° East 447 514 24,500 1,500 Climbing Houston Center
11:54PM 30.3175 -96.5028 94° East 453 521 26,100 1,620 Climbing Houston Center
11:55PM 30.3061 -96.3214 94° East 466 536 27,800 1,380 Climbing Houston Center
11:56PM 30.2964 -96.1694 94° East 471 542 28,900 1,080 Climbing Houston Center
11:57PM 30.2797 -96.0286 98° East 483 556 30,000 1,200 Climbing Houston Center
11:58PM 30.2600 -95.8744 98° East 486 559 31,400 1,440 Climbing Houston Center
11:59PM 30.2392 -95.7206 99° East 486 559 33,000 1,560 Climbing Houston Center
12:00AM 30.2208 -95.5678 98° East 483 556 34,600 1,620 Climbing Houston Center
12:01AM 30.2019 -95.4167 98° East 479 551 36,300 1,500 Climbing Houston Center
12:02AM 30.1822 -95.2661 99° East 472 543 37,700 1,500 Climbing Houston Center
12:03AM 30.1614 -95.1153 99° East 472 543 39,400 1,500 Climbing Houston Center
12:04AM 30.1422 -94.9675 98° East 467 537 40,800 780 Climbing Houston Center
12:05AM 30.1225 -94.8150 98° East 475 547 41,000 60 Climbing Houston Center
12:06AM 30.0956 -94.6208 99° East 504 580 41,000  Level Houston Center
12:07AM 30.0767 -94.4714 98° East 518 596 41,000  Level Houston Center
12:08AM 30.0522 -94.3033 99° East 529 609 41,000  Level Houston Center
12:09AM 30.0214 -94.1386 102° East 530 610 41,000  Level Houston Center
12:10AM 29.9761 -93.9811 108° East 526 605 41,000  Level Houston Center
12:11AM 29.9300 -93.8231 109° East 524 603 41,000  Level Houston Center
12:12AM 29.8769 -93.6344 108° East 522 601 41,000  Level Houston Center
12:13AM 29.8325 -93.4783 108° East 522 601 41,000 420 Level Houston Center
12:14AM 29.7881 -93.3222 108° East 520 598 41,900 840 Climbing Houston Center
12:15AM 29.7528 -93.1725 105° East 498 573 42,900 480 Climbing Houston Center
12:16AM 29.7319 -93.0100 98° East 506 582 43,000  Climbing Houston Center
12:17AM 29.7072 -92.8111 98° East 515 593 43,000  Level Houston Center
12:18AM 29.6842 -92.6472 99° East 523 602 43,000  Level Houston Center
12:19AM 29.6611 -92.4831 99° East 525 604 43,000  Level Houston Center
12:20AM 29.6372 -92.3203 100° East 525 604 43,000  Level Houston Center
12:21AM 29.6117 -92.1411 99° East 527 606 43,000  Level Houston Center
12:22AM 29.5881 -91.9758 99° East 530 610 43,000  Level Houston Center
12:23AM 29.5633 -91.8119 100° East 530 610 43,000  Level Houston Center
12:24AM 29.5408 -91.6489 99° East 529 609 43,000  Level Houston Center
12:25AM 29.5136 -91.4719 100° East 529 609 43,000  Level Houston Center
12:26AM 29.4928 -91.3272 99° East 529 609 43,000  Level Houston Center
12:27AM 29.4675 -91.1622 100° East 527 606 43,000  Level Houston Center
12:28AM 29.4442 -90.9958 99° East 528 608 43,000  Level Houston Center
12:29AM 29.4183 -90.8306 100° East 528 608 43,000  Level Houston Center
12:30AM 29.3925 -90.6653 100° East 528 608 43,000  Level Houston Center
12:31AM 29.3675 -90.5008 100° East 529 609 43,000  Level Houston Center
12:32AM 29.3358 -90.3025 100° East 529 609 43,000  Level Houston Center
12:33AM 29.3103 -90.1378 100° East 529 609 43,000  Level Houston Center
12:34AM 29.2850 -89.9733 100° East 528 608 43,000  Level Houston Center
12:36AM 29.2575 -89.8092 101° East 529 609 43,000  Level Houston Center
12:37AM 29.2322 -89.6450 100° East 528 608 43,000  Level Houston Center
12:38AM 29.2044 -89.4794 101° East 531 611 43,000  Level Houston Center
12:39AM 29.1783 -89.3147 100° East 531 611 43,000  Level Houston Center
12:40AM 29.1508 -89.1489 101° East 531 611 43,000  Level Houston Center
12:41AM 29.1219 -88.9819 101° East 535 616 43,000  Level Houston Center
12:42AM 29.0961 -88.8169 100° East 532 612 43,000  Level Houston Center
12:43AM 29.0675 -88.6531 101° East 531 611 43,000  Level Houston Center
12:44AM 29.0397 -88.4875 101° East 531 611 43,000  Level Houston Center
12:45AM 29.0106 -88.3239 101° East 531 611 43,000  Level Houston Center
12:46AM 28.9831 -88.1586 101° East 530 610 43,000  Level Houston Center
12:47AM 28.9517 -87.9769 101° East 531 611 43,000  Level Houston Center
12:48AM 28.9222 -87.8133 102° East 530 610 43,000  Level Houston Center
12:49AM 28.8933 -87.6489 101° East 530 610 43,000  Level Houston Center
12:50AM 28.8611 -87.4858 103° East 530 610 43,000  Level Houston Center
12:51AM 28.8275 -87.3219 103° East 530 610 43,000  Level Houston Center
12:52AM 28.7942 -87.1603 103° East 530 610 43,000  Level Houston Center
12:53AM 28.7614 -86.9958 103° East 530 610 43,000  Level Houston Center
12:54AM 28.7189 -86.7914 103° East 526 605 43,000  Level Jacksonville Center
12:55AM 28.6878 -86.6433 103° East 533 613 43,000  Level Jacksonville Center
12:56AM 28.6550 -86.4789 103° East 533 613 43,000  Level Jacksonville Center
12:57AM 28.6156 -86.3119 105° East 533 613 43,000  Level Jacksonville Center
12:58AM 28.5842 -86.1550 103° East 528 608 43,000  Level Jacksonville Center
12:59AM 28.5486 -85.9908 104° East 534 615 43,000  Level Jacksonville Center
01:00AM 28.5150 -85.8267 103° East 534 615 43,000  Level Jacksonville Center
01:01AM 28.4792 -85.6556 103° East 538 619 43,000  Level Jacksonville Center
01:02AM 28.4428 -85.4964 105° East 533 613 43,000  Level Jacksonville Center
01:03AM 28.4083 -85.3375 104° East 533 613 43,000 -420 Level Jacksonville Center
01:04AM 28.3717 -85.1714 104° East 533 613 42,200 -1,500 Descending Jacksonville Center
01:05AM 28.3350 -85.0008 104° East 533 613 40,100 -2,400 Descending Jacksonville Center
01:06AM 28.2958 -84.8375 105° East 538 619 37,400 -2,700 Descending Jacksonville Center
01:07AM 28.2586 -84.6694 104° East 544 626 34,700 -2,700 Descending Jacksonville Center
01:08AM 28.2233 -84.5014 103° East 539 620 32,000 -2,580 Descending Jacksonville Center
01:14AM 28.0000 -83.5000 66° East 447 514 15,500 -2,520 Descending Tampa TRACON
01:15AM 27.9833 -83.4500 111° Southeast 438 504 14,800 -2,280 Descending Tampa TRACON
01:16AM 27.9667 -83.3333 99° East 419 482 12,600 -2,220 Descending Tampa TRACON
01:17AM 27.9291 -83.2704 99° East  Level FlightAware Approximate
01:17AM 27.9500 -83.2000 98° East 372 428 10,200  Level Tampa TRACON
01:18AM 27.9080 -83.1321 63° Northeast  Level FlightAware Approximate
01:18AM 27.9500 -83.0833 90° East 358 412 8,000  Level Tampa TRACON
01:19AM 27.9662 -83.0012 63° Northeast  Level FlightAware Approximate
01:20AM 28.0278 -82.8723 66° East  Level FlightAware Approximate
01:20AM 27.9251 -82.8358 96° East  Level Estimated
01:27AM 27.9000 -82.6833 341° North  Level FlightAware Approximate
01:28AM 27.9100 -82.6875 180° South  Level Estimated
01:29AM 27.9100 -82.6875 North  Level Estimated
01:30AM 27.9100 -82.6875 341° North  Level Estimated
01:31AM 27.9100 -82.6875 341° North  Level Estimated
01:32AM 27.9100 -82.6875 180° South  Level Estimated
01:33AM 27.9100 -82.6875 North  Level Estimated
01:34AM 27.9100 -82.6875 341° North  Level Estimated